Аэропорт: Кривой Рог. Кривой Рог

ICAO: UKDR

METAR:
2020-06-02 07:00:00
UKDR 020700Z 23002MPS 140V290 CAVOK 14/07 Q1008 R36/09//70 NOSIG
METAR:
2020-06-02 05:01:00
TAF UKDR 020501Z 0206/0306 24002MPS 9999 BKN020 TEMPO 0209/0216 22005MPS 3100 -SHRA BKN007 BKN020CB BECMG 0216/0218 VRB01MPS TEMPO 0220/0306 2500 -SHRA BR BKN007 BKN020CB